sensor_id;sensor_type;location;lat;lon;timestamp;pressure;altitude;pressure_sealevel;temperature;humidity
30873;BME280;17579;42.690;2.586;2022-08-21T00:02:13;97229.00;;;27.83;36.08
30873;BME280;17579;42.690;2.586;2022-08-21T00:04:39;97229.34;;;27.92;36.16
30873;BME280;17579;42.690;2.586;2022-08-21T00:07:04;97235.03;;;27.91;35.80
30873;BME280;17579;42.690;2.586;2022-08-21T00:09:30;97243.19;;;27.91;36.15
30873;BME280;17579;42.690;2.586;2022-08-21T00:12:05;97236.63;;;27.87;35.96
30873;BME280;17579;42.690;2.586;2022-08-21T00:14:32;97227.69;;;27.91;35.76
30873;BME280;17579;42.690;2.586;2022-08-21T00:17:08;97229.31;;;27.87;36.23
30873;BME280;17579;42.690;2.586;2022-08-21T00:19:34;97224.97;;;27.91;35.76
30873;BME280;17579;42.690;2.586;2022-08-21T00:22:00;97232.59;;;27.89;36.27
30873;BME280;17579;42.690;2.586;2022-08-21T00:24:26;97228.47;;;27.87;36.19
30873;BME280;17579;42.690;2.586;2022-08-21T00:26:56;97223.00;;;27.81;36.03
30873;BME280;17579;42.690;2.586;2022-08-21T00:29:22;97227.09;;;27.84;36.14
30873;BME280;17579;42.690;2.586;2022-08-21T00:31:50;97232.22;;;27.80;36.28
30873;BME280;17579;42.690;2.586;2022-08-21T00:34:15;97230.59;;;27.79;36.19
30873;BME280;17579;42.690;2.586;2022-08-21T00:37:00;97239.78;;;27.73;36.00
30873;BME280;17579;42.690;2.586;2022-08-21T00:39:29;97235.75;;;27.81;36.31
30873;BME280;17579;42.690;2.586;2022-08-21T00:41:55;97232.75;;;27.77;36.41
30873;BME280;17579;42.690;2.586;2022-08-21T00:44:21;97241.16;;;27.76;36.32
30873;BME280;17579;42.690;2.586;2022-08-21T00:46:53;97231.56;;;27.68;36.26
30873;BME280;17579;42.690;2.586;2022-08-21T00:49:19;97229.41;;;27.70;36.47
30873;BME280;17579;42.690;2.586;2022-08-21T00:52:03;97228.47;;;27.59;36.42
30873;BME280;17579;42.690;2.586;2022-08-21T00:54:31;97228.53;;;27.64;36.75
30873;BME280;17579;42.690;2.586;2022-08-21T00:57:01;97224.44;;;27.62;36.54
30873;BME280;17579;42.690;2.586;2022-08-21T00:59:29;97228.81;;;27.63;36.47
30873;BME280;17579;42.690;2.586;2022-08-21T01:01:57;97228.53;;;27.64;36.75
30873;BME280;17579;42.690;2.586;2022-08-21T01:04:23;97217.69;;;27.64;36.32
30873;BME280;17579;42.690;2.586;2022-08-21T01:07:02;97216.81;;;27.59;36.71
30873;BME280;17579;42.690;2.586;2022-08-21T01:09:28;97210.03;;;27.61;36.40
30873;BME280;17579;42.690;2.586;2022-08-21T01:12:00;97217.88;;;27.58;36.67
30873;BME280;17579;42.690;2.586;2022-08-21T01:14:27;97217.63;;;27.59;36.94
30873;BME280;17579;42.690;2.586;2022-08-21T01:17:00;97216.75;;;27.54;36.66
30873;BME280;17579;42.690;2.586;2022-08-21T01:19:27;97220.03;;;27.56;36.59
30873;BME280;17579;42.690;2.586;2022-08-21T01:22:05;97208.03;;;27.52;36.79
30873;BME280;17579;42.690;2.586;2022-08-21T01:24:31;97216.22;;;27.57;36.92
30873;BME280;17579;42.690;2.586;2022-08-21T01:26:58;97213.22;;;27.53;37.10
30873;BME280;17579;42.690;2.586;2022-08-21T01:29:39;97211.28;;;27.48;36.93
30873;BME280;17579;42.690;2.586;2022-08-21T01:32:11;97209.66;;;27.53;36.56
30873;BME280;17579;42.690;2.586;2022-08-21T01:34:38;97206.38;;;27.51;36.88
30873;BME280;17579;42.690;2.586;2022-08-21T01:37:04;97202.53;;;27.46;36.67
30873;BME280;17579;42.690;2.586;2022-08-21T01:39:30;97207.69;;;27.43;37.11
30873;BME280;17579;42.690;2.586;2022-08-21T01:41:58;97211.66;;;27.35;36.91
30873;BME280;17579;42.690;2.586;2022-08-21T01:44:24;97219.22;;;27.33;36.86
30873;BME280;17579;42.690;2.586;2022-08-21T01:47:02;97216.13;;;27.24;37.01
30873;BME280;17579;42.690;2.586;2022-08-21T01:49:28;97207.47;;;27.27;37.38
30873;BME280;17579;42.690;2.586;2022-08-21T01:52:01;97197.88;;;27.20;37.15
30873;BME280;17579;42.690;2.586;2022-08-21T01:54:27;97204.94;;;27.21;37.28
30873;BME280;17579;42.690;2.586;2022-08-21T01:56:58;97204.31;;;27.13;37.18
30873;BME280;17579;42.690;2.586;2022-08-21T01:59:25;97207.88;;;27.14;37.44
30873;BME280;17579;42.690;2.586;2022-08-21T02:02:00;97206.41;;;27.06;37.37
30873;BME280;17579;42.690;2.586;2022-08-21T02:04:26;97205.63;;;27.11;37.57
30873;BME280;17579;42.690;2.586;2022-08-21T02:06:55;97200.97;;;27.06;37.30
30873;BME280;17579;42.690;2.586;2022-08-21T02:09:20;97205.59;;;27.06;37.57
30873;BME280;17579;42.690;2.586;2022-08-21T02:11:55;97200.06;;;27.01;37.64
30873;BME280;17579;42.690;2.586;2022-08-21T02:14:20;97197.94;;;27.03;37.69
30873;BME280;17579;42.690;2.586;2022-08-21T02:17:07;97195.66;;;26.94;37.24
30873;BME280;17579;42.690;2.586;2022-08-21T02:19:36;97190.78;;;26.96;37.39
30873;BME280;17579;42.690;2.586;2022-08-21T02:22:02;97196.72;;;26.93;37.92
30873;BME280;17579;42.690;2.586;2022-08-21T02:24:28;97194.28;;;26.92;37.58
30873;BME280;17579;42.690;2.586;2022-08-21T02:26:54;97194.78;;;26.89;37.57
30873;BME280;17579;42.690;2.586;2022-08-21T02:29:19;97196.44;;;26.90;37.77
30873;BME280;17579;42.690;2.586;2022-08-21T02:31:57;97187.16;;;26.86;37.64
30873;BME280;17579;42.690;2.586;2022-08-21T02:34:23;97185.81;;;26.88;37.75
30873;BME280;17579;42.690;2.586;2022-08-21T02:36:58;97187.41;;;26.84;37.80
30873;BME280;17579;42.690;2.586;2022-08-21T02:39:23;97185.00;;;26.88;37.91
30873;BME280;17579;42.690;2.586;2022-08-21T02:41:59;97178.66;;;26.82;37.87
30873;BME280;17579;42.690;2.586;2022-08-21T02:44:25;97184.69;;;26.84;37.82
30873;BME280;17579;42.690;2.586;2022-08-21T02:46:52;97181.38;;;26.82;37.79
30873;BME280;17579;42.690;2.586;2022-08-21T02:49:18;97179.25;;;26.84;38.12
30873;BME280;17579;42.690;2.586;2022-08-21T02:51:57;97175.66;;;26.78;37.72
30873;BME280;17579;42.690;2.586;2022-08-21T02:54:23;97164.03;;;26.83;37.90
30873;BME280;17579;42.690;2.586;2022-08-21T02:56:57;97174.00;;;26.77;38.07
30873;BME280;17579;42.690;2.586;2022-08-21T02:59:22;97168.91;;;26.81;38.37
30873;BME280;17579;42.690;2.586;2022-08-21T03:01:58;97166.13;;;26.76;38.33
30873;BME280;17579;42.690;2.586;2022-08-21T03:04:24;97162.66;;;26.80;38.36
30873;BME280;17579;42.690;2.586;2022-08-21T03:06:54;97170.47;;;26.77;38.40
30873;BME280;17579;42.690;2.586;2022-08-21T03:09:19;97170.22;;;26.78;38.38
30873;BME280;17579;42.690;2.586;2022-08-21T03:11:54;97162.25;;;26.72;37.88
30873;BME280;17579;42.690;2.586;2022-08-21T03:14:20;97159.31;;;26.73;38.55
30873;BME280;17579;42.690;2.586;2022-08-21T03:16:53;97160.28;;;26.67;38.42
30873;BME280;17579;42.690;2.586;2022-08-21T03:19:18;97163.59;;;26.69;38.60
30873;BME280;17579;42.690;2.586;2022-08-21T03:21:56;97150.19;;;26.62;38.52
30873;BME280;17579;42.690;2.586;2022-08-21T03:24:21;97154.31;;;26.65;38.73
30873;BME280;17579;42.690;2.586;2022-08-21T03:26:55;97159.91;;;26.58;38.27
30873;BME280;17579;42.690;2.586;2022-08-21T03:29:22;97153.41;;;26.59;38.50
30873;BME280;17579;42.690;2.586;2022-08-21T03:31:55;97163.91;;;26.56;38.69
30873;BME280;17579;42.690;2.586;2022-08-21T03:34:21;97168.03;;;26.58;38.72
30873;BME280;17579;42.690;2.586;2022-08-21T03:36:56;97166.59;;;26.51;38.50
30873;BME280;17579;42.690;2.586;2022-08-21T03:39:21;97172.56;;;26.53;38.71
30873;BME280;17579;42.690;2.586;2022-08-21T03:41:57;97182.53;;;26.47;38.51
30873;BME280;17579;42.690;2.586;2022-08-21T03:44:23;97179.56;;;26.49;38.91
30873;BME280;17579;42.690;2.586;2022-08-21T03:46:57;97180.81;;;26.41;38.69
30873;BME280;17579;42.690;2.586;2022-08-21T03:49:24;97177.00;;;26.42;39.07
30873;BME280;17579;42.690;2.586;2022-08-21T03:51:50;97171.28;;;26.38;39.18
30873;BME280;17579;42.690;2.586;2022-08-21T03:54:16;97169.88;;;26.36;39.22
30873;BME280;17579;42.690;2.586;2022-08-21T03:56:50;97170.28;;;26.27;38.95
30873;BME280;17579;42.690;2.586;2022-08-21T03:59:16;97172.53;;;26.31;39.10
30873;BME280;17579;42.690;2.586;2022-08-21T04:02:01;97180.03;;;26.23;38.69
30873;BME280;17579;42.690;2.586;2022-08-21T04:04:28;97167.31;;;26.29;39.26
30873;BME280;17579;42.690;2.586;2022-08-21T04:06:55;97177.63;;;26.27;38.90
30873;BME280;17579;42.690;2.586;2022-08-21T04:09:21;97182.72;;;26.23;39.19
30873;BME280;17579;42.690;2.586;2022-08-21T04:12:02;97176.41;;;26.18;39.22
30873;BME280;17579;42.690;2.586;2022-08-21T04:14:30;97176.72;;;26.21;39.40
30873;BME280;17579;42.690;2.586;2022-08-21T04:16:58;97176.72;;;26.21;39.07
30873;BME280;17579;42.690;2.586;2022-08-21T04:19:24;97182.38;;;26.20;39.15
30873;BME280;17579;42.690;2.586;2022-08-21T04:21:53;97186.91;;;26.14;39.35
30873;BME280;17579;42.690;2.586;2022-08-21T04:24:19;97179.03;;;26.13;39.05
30873;BME280;17579;42.690;2.586;2022-08-21T04:26:55;97179.44;;;26.04;39.15
30873;BME280;17579;42.690;2.586;2022-08-21T04:29:21;97180.03;;;26.06;39.08
30873;BME280;17579;42.690;2.586;2022-08-21T04:31:56;97176.88;;;25.98;39.52
30873;BME280;17579;42.690;2.586;2022-08-21T04:34:22;97183.09;;;25.98;39.76
30873;BME280;17579;42.690;2.586;2022-08-21T04:36:54;97180.53;;;25.91;39.39
30873;BME280;17579;42.690;2.586;2022-08-21T04:39:19;97178.69;;;25.92;39.44
30873;BME280;17579;42.690;2.586;2022-08-21T04:41:58;97184.25;;;25.85;39.79
30873;BME280;17579;42.690;2.586;2022-08-21T04:44:23;97185.66;;;25.88;39.80
30873;BME280;17579;42.690;2.586;2022-08-21T04:46:57;97180.53;;;25.74;39.41
30873;BME280;17579;42.690;2.586;2022-08-21T04:49:23;97178.66;;;25.75;39.95
30873;BME280;17579;42.690;2.586;2022-08-21T04:52:09;97185.75;;;25.64;40.03
30873;BME280;17579;42.690;2.586;2022-08-21T04:54:39;97184.56;;;25.72;39.80
30873;BME280;17579;42.690;2.586;2022-08-21T04:57:07;97186.94;;;25.68;39.68
30873;BME280;17579;42.690;2.586;2022-08-21T04:59:43;97185.75;;;25.64;39.81
30873;BME280;17579;42.690;2.586;2022-08-21T05:02:10;97188.81;;;25.68;40.25
30873;BME280;17579;42.690;2.586;2022-08-21T05:04:42;97187.97;;;25.67;39.89
30873;BME280;17579;42.690;2.586;2022-08-21T05:07:13;97188.47;;;25.64;40.33
30873;BME280;17579;42.690;2.586;2022-08-21T05:09:41;97183.41;;;25.68;40.47
30873;BME280;17579;42.690;2.586;2022-08-21T05:12:07;97189.38;;;25.70;40.21
30873;BME280;17579;42.690;2.586;2022-08-21T05:14:32;97191.59;;;25.73;40.39
30873;BME280;17579;42.690;2.586;2022-08-21T05:17:15;97190.47;;;25.69;39.97
30873;BME280;17579;42.690;2.586;2022-08-21T05:19:42;97187.84;;;25.74;40.27
30873;BME280;17579;42.690;2.586;2022-08-21T05:22:21;97195.66;;;25.70;39.99
30873;BME280;17579;42.690;2.586;2022-08-21T05:24:46;97191.94;;;25.76;40.43
30873;BME280;17579;42.690;2.586;2022-08-21T05:27:12;97205.00;;;25.80;40.17
30873;BME280;17579;42.690;2.586;2022-08-21T05:29:38;97205.59;;;25.82;39.93
30873;BME280;17579;42.690;2.586;2022-08-21T05:32:09;97206.31;;;25.77;40.10
30873;BME280;17579;42.690;2.586;2022-08-21T05:34:35;97199.59;;;25.80;40.28
30873;BME280;17579;42.690;2.586;2022-08-21T05:37:10;97211.72;;;25.77;39.96
30873;BME280;17579;42.690;2.586;2022-08-21T05:39:36;97208.63;;;25.85;40.10
30873;BME280;17579;42.690;2.586;2022-08-21T05:42:20;97210.19;;;25.81;39.99
30873;BME280;17579;42.690;2.586;2022-08-21T05:44:46;97207.38;;;25.93;40.43
30873;BME280;17579;42.690;2.586;2022-08-21T05:47:15;97207.13;;;25.94;40.26
30873;BME280;17579;42.690;2.586;2022-08-21T05:49:40;97214.09;;;26.02;40.38
30873;BME280;17579;42.690;2.586;2022-08-21T05:52:18;97208.19;;;26.05;40.05
30873;BME280;17579;42.690;2.586;2022-08-21T05:54:44;97210.31;;;26.20;40.18
30873;BME280;17579;42.690;2.586;2022-08-21T05:57:12;97205.53;;;26.44;39.99
30873;BME280;17579;42.690;2.586;2022-08-21T05:59:38;97211.81;;;26.84;39.70
30873;BME280;17579;42.690;2.586;2022-08-21T06:02:16;97213.59;;;27.18;39.23
30873;BME280;17579;42.690;2.586;2022-08-21T06:04:42;97207.31;;;27.61;38.42
30873;BME280;17579;42.690;2.586;2022-08-21T06:07:30;97204.59;;;27.89;38.30
30873;BME280;17579;42.690;2.586;2022-08-21T06:09:56;97211.03;;;28.42;37.65
30873;BME280;17579;42.690;2.586;2022-08-21T06:12:21;97211.81;;;28.80;37.20
30873;BME280;17579;42.690;2.586;2022-08-21T06:14:47;97203.00;;;29.16;36.90
30873;BME280;17579;42.690;2.586;2022-08-21T06:17:43;97205.31;;;29.45;36.51
30873;BME280;17579;42.690;2.586;2022-08-21T06:20:36;97210.06;;;29.91;35.74
30873;BME280;17579;42.690;2.586;2022-08-21T06:23:14;97201.88;;;30.27;34.91
30873;BME280;17579;42.690;2.586;2022-08-21T06:26:07;97192.34;;;30.45;35.25
30873;BME280;17579;42.690;2.586;2022-08-21T06:28:49;97192.81;;;30.72;34.04
30873;BME280;17579;42.690;2.586;2022-08-21T06:31:45;97197.16;;;30.84;34.45
30873;BME280;17579;42.690;2.586;2022-08-21T06:34:26;97189.47;;;30.96;32.89
30873;BME280;17579;42.690;2.586;2022-08-21T06:37:21;97181.66;;;30.64;34.23
30873;BME280;17579;42.690;2.586;2022-08-21T06:40:04;97186.19;;;30.94;33.05
30873;BME280;17579;42.690;2.586;2022-08-21T06:43:05;97177.25;;;30.78;33.35
30873;BME280;17579;42.690;2.586;2022-08-21T06:45:55;97177.25;;;30.73;33.63
30873;BME280;17579;42.690;2.586;2022-08-21T06:48:34;97177.06;;;30.49;33.44
30873;BME280;17579;42.690;2.586;2022-08-21T06:51:26;97185.78;;;29.99;34.52
30873;BME280;17579;42.690;2.586;2022-08-21T06:54:04;97191.72;;;29.70;34.26
30873;BME280;17579;42.690;2.586;2022-08-21T06:56:51;97182.41;;;29.41;34.16
30873;BME280;17579;42.690;2.586;2022-08-21T06:59:29;97172.44;;;29.93;33.21
30873;BME280;17579;42.690;2.586;2022-08-21T07:02:19;97174.31;;;30.44;33.28
30873;BME280;17579;42.690;2.586;2022-08-21T07:04:59;97168.13;;;31.14;31.85
30873;BME280;17579;42.690;2.586;2022-08-21T07:07:35;97170.97;;;31.43;31.65
30873;BME280;17579;42.690;2.586;2022-08-21T07:10:01;97167.69;;;31.86;30.48
30873;BME280;17579;42.690;2.586;2022-08-21T07:12:44;97161.47;;;32.09;30.85
30873;BME280;17579;42.690;2.586;2022-08-21T07:15:11;97165.03;;;32.44;29.42
30873;BME280;17579;42.690;2.586;2022-08-21T07:17:42;97160.13;;;32.65;29.49
30873;BME280;17579;42.690;2.586;2022-08-21T07:20:08;97161.59;;;32.87;28.65
30873;BME280;17579;42.690;2.586;2022-08-21T07:22:49;97160.88;;;33.01;29.04
30873;BME280;17579;42.690;2.586;2022-08-21T07:25:20;97158.16;;;33.20;28.10
30873;BME280;17579;42.690;2.586;2022-08-21T07:27:49;97147.50;;;33.37;27.79
30873;BME280;17579;42.690;2.586;2022-08-21T07:30:19;97143.56;;;33.24;27.53
30873;BME280;17579;42.690;2.586;2022-08-21T07:32:52;97141.50;;;33.16;27.60
30873;BME280;17579;42.690;2.586;2022-08-21T07:35:27;97135.50;;;33.33;27.59
30873;BME280;17579;42.690;2.586;2022-08-21T07:38:00;97142.03;;;33.56;27.09
30873;BME280;17579;42.690;2.586;2022-08-21T07:40:40;97135.13;;;33.59;27.42
30873;BME280;17579;42.690;2.586;2022-08-21T07:43:19;97140.53;;;33.83;27.21
30873;BME280;17579;42.690;2.586;2022-08-21T07:46:11;97137.03;;;33.96;27.56
30873;BME280;17579;42.690;2.586;2022-08-21T07:48:51;97133.19;;;34.30;26.10
30873;BME280;17579;42.690;2.586;2022-08-21T07:51:44;97125.38;;;34.05;26.83
30873;BME280;17579;42.690;2.586;2022-08-21T07:54:22;97128.50;;;33.98;26.18
30873;BME280;17579;42.690;2.586;2022-08-21T07:57:13;97121.09;;;33.98;27.17
30873;BME280;17579;42.690;2.586;2022-08-21T07:59:50;97118.72;;;33.92;26.28
30873;BME280;17579;42.690;2.586;2022-08-21T08:02:44;97120.03;;;33.42;26.85
30873;BME280;17579;42.690;2.586;2022-08-21T08:05:28;97137.19;;;33.86;26.97
30873;BME280;17579;42.690;2.586;2022-08-21T08:08:04;97130.16;;;34.13;26.29
30873;BME280;17579;42.690;2.586;2022-08-21T08:10:50;97117.78;;;34.15;26.11
30873;BME280;17579;42.690;2.586;2022-08-21T08:13:28;97129.47;;;34.21;26.12
30873;BME280;17579;42.690;2.586;2022-08-21T08:16:20;97121.44;;;34.25;26.31
30873;BME280;17579;42.690;2.586;2022-08-21T08:19:00;97116.00;;;34.66;25.38
30873;BME280;17579;42.690;2.586;2022-08-21T08:21:53;97119.16;;;34.46;25.76
30873;BME280;17579;42.690;2.586;2022-08-21T08:24:31;97107.47;;;34.54;25.57
30873;BME280;17579;42.690;2.586;2022-08-21T08:27:26;97115.38;;;34.28;25.81
30873;BME280;17579;42.690;2.586;2022-08-21T08:30:09;97116.56;;;34.22;25.94
30873;BME280;17579;42.690;2.586;2022-08-21T08:33:08;97114.81;;;34.12;26.23
30873;BME280;17579;42.690;2.586;2022-08-21T08:36:12;97115.59;;;33.98;26.07
30873;BME280;17579;42.690;2.586;2022-08-21T08:38:51;97110.41;;;33.97;25.88
30873;BME280;17579;42.690;2.586;2022-08-21T08:41:46;97113.94;;;33.83;26.16
30873;BME280;17579;42.690;2.586;2022-08-21T08:44:29;97118.38;;;33.60;25.89
30873;BME280;17579;42.690;2.586;2022-08-21T08:47:25;97115.50;;;33.32;26.68
30873;BME280;17579;42.690;2.586;2022-08-21T08:50:13;97116.53;;;33.18;26.28
30873;BME280;17579;42.690;2.586;2022-08-21T08:53:06;97123.41;;;32.96;27.21
30873;BME280;17579;42.690;2.586;2022-08-21T08:55:57;97118.41;;;32.79;26.64
30873;BME280;17579;42.690;2.586;2022-08-21T08:58:40;97118.97;;;32.52;27.48
30873;BME280;17579;42.690;2.586;2022-08-21T09:01:32;97113.13;;;32.34;28.05
30873;BME280;17579;42.690;2.586;2022-08-21T09:04:12;97127.91;;;32.33;27.83
30873;BME280;17579;42.690;2.586;2022-08-21T09:10:22;97128.63;;;32.15;28.08
30873;BME280;17579;42.690;2.586;2022-08-21T09:13:07;97127.72;;;32.24;28.20
30873;BME280;17579;42.690;2.586;2022-08-21T09:27:48;97119.72;;;32.33;28.25
30873;BME280;17579;42.690;2.586;2022-08-21T09:30:41;97122.97;;;32.35;28.24
30873;BME280;17579;42.690;2.586;2022-08-21T09:33:19;97116.06;;;32.43;28.30
30873;BME280;17579;42.690;2.586;2022-08-21T09:36:11;97121.09;;;32.30;28.95
30873;BME280;17579;42.690;2.586;2022-08-21T09:38:53;97122.56;;;32.47;28.84
30873;BME280;17579;42.690;2.586;2022-08-21T09:42:00;97121.28;;;32.39;29.24
30873;BME280;17579;42.690;2.586;2022-08-21T09:44:40;97121.06;;;32.36;28.65
30873;BME280;17579;42.690;2.586;2022-08-21T09:47:38;97108.75;;;32.33;28.85
30873;BME280;17579;42.690;2.586;2022-08-21T09:50:23;97114.84;;;32.54;29.11
30873;BME280;17579;42.690;2.586;2022-08-21T09:53:01;97099.91;;;32.41;28.65
30873;BME280;17579;42.690;2.586;2022-08-21T09:56:02;97093.16;;;32.34;28.96
30873;BME280;17579;42.690;2.586;2022-08-21T09:58:42;97093.63;;;32.41;29.00
30873;BME280;17579;42.690;2.586;2022-08-21T10:01:41;97093.69;;;32.36;29.37
30873;BME280;17579;42.690;2.586;2022-08-21T10:04:27;97103.13;;;32.49;29.09
30873;BME280;17579;42.690;2.586;2022-08-21T10:07:24;97113.78;;;32.50;29.17
30873;BME280;17579;42.690;2.586;2022-08-21T10:13:51;97095.97;;;32.53;28.84
30873;BME280;17579;42.690;2.586;2022-08-21T10:19:35;97102.31;;;32.72;28.79
30873;BME280;17579;42.690;2.586;2022-08-21T10:28:44;97098.53;;;32.68;28.50
30873;BME280;17579;42.690;2.586;2022-08-21T10:34:37;97097.28;;;32.79;28.48
30873;BME280;17579;42.690;2.586;2022-08-21T10:37:39;97086.88;;;32.81;28.25
30873;BME280;17579;42.690;2.586;2022-08-21T10:40:30;97089.03;;;32.85;28.13
30873;BME280;17579;42.690;2.586;2022-08-21T10:43:37;97079.97;;;32.84;28.39
30873;BME280;17579;42.690;2.586;2022-08-21T10:58:13;97063.34;;;32.99;28.18
30873;BME280;17579;42.690;2.586;2022-08-21T11:01:11;97055.25;;;33.08;28.48
30873;BME280;17579;42.690;2.586;2022-08-21T11:04:07;97054.38;;;33.13;27.80
30873;BME280;17579;42.690;2.586;2022-08-21T11:07:04;97052.16;;;33.15;27.86
30873;BME280;17579;42.690;2.586;2022-08-21T11:09:47;97068.47;;;33.25;27.45
30873;BME280;17579;42.690;2.586;2022-08-21T11:12:44;97049.53;;;33.29;27.68
30873;BME280;17579;42.690;2.586;2022-08-21T11:18:21;97057.34;;;32.97;27.43
30873;BME280;17579;42.690;2.586;2022-08-21T11:24:03;97064.88;;;32.62;27.42
30873;BME280;17579;42.690;2.586;2022-08-21T11:29:48;97049.53;;;32.86;27.27
30873;BME280;17579;42.690;2.586;2022-08-21T11:32:39;97068.16;;;32.89;27.42
30873;BME280;17579;42.690;2.586;2022-08-21T11:35:38;97061.19;;;32.96;27.48
30873;BME280;17579;42.690;2.586;2022-08-21T11:41:40;97056.75;;;33.01;27.43
30873;BME280;17579;42.690;2.586;2022-08-21T11:44:38;97055.56;;;33.07;26.88
30873;BME280;17579;42.690;2.586;2022-08-21T11:50:23;97042.91;;;33.11;27.18
30873;BME280;17579;42.690;2.586;2022-08-21T11:53:21;97049.94;;;32.98;27.14
30873;BME280;17579;42.690;2.586;2022-08-21T11:56:12;97036.09;;;32.89;27.18
30873;BME280;17579;42.690;2.586;2022-08-21T11:58:59;97039.47;;;33.00;27.34
30873;BME280;17579;42.690;2.586;2022-08-21T12:01:54;97018.59;;;33.04;26.79
30873;BME280;17579;42.690;2.586;2022-08-21T12:04:35;97035.19;;;33.13;26.78
30873;BME280;17579;42.690;2.586;2022-08-21T12:07:41;97040.41;;;33.14;27.12
30873;BME280;17579;42.690;2.586;2022-08-21T12:10:41;97020.97;;;33.30;27.02
30873;BME280;17579;42.690;2.586;2022-08-21T12:13:27;97023.44;;;33.31;26.47
30873;BME280;17579;42.690;2.586;2022-08-21T12:16:29;97018.66;;;33.23;27.27
30873;BME280;17579;42.690;2.586;2022-08-21T12:19:09;97018.03;;;33.26;26.50
30873;BME280;17579;42.690;2.586;2022-08-21T12:24:50;97017.50;;;33.43;26.86
30873;BME280;17579;42.690;2.586;2022-08-21T12:27:40;97024.03;;;33.28;26.55
30873;BME280;17579;42.690;2.586;2022-08-21T12:33:40;97009.56;;;33.42;26.86
30873;BME280;17579;42.690;2.586;2022-08-21T12:36:41;96998.13;;;33.54;27.03
30873;BME280;17579;42.690;2.586;2022-08-21T12:39:26;96994.28;;;33.68;26.72
30873;BME280;17579;42.690;2.586;2022-08-21T12:45:19;97002.63;;;33.63;26.92
30873;BME280;17579;42.690;2.586;2022-08-21T12:51:22;96988.44;;;33.75;26.80
30873;BME280;17579;42.690;2.586;2022-08-21T12:54:03;96999.34;;;33.94;26.53
30873;BME280;17579;42.690;2.586;2022-08-21T12:56:55;96986.84;;;33.88;26.69
30873;BME280;17579;42.690;2.586;2022-08-21T12:59:39;96985.72;;;34.03;27.07
30873;BME280;17579;42.690;2.586;2022-08-21T13:02:34;96983.47;;;34.19;26.79
30873;BME280;17579;42.690;2.586;2022-08-21T13:05:33;96977.78;;;34.57;26.41
30873;BME280;17579;42.690;2.586;2022-08-21T13:08:12;96987.28;;;34.37;26.07
30873;BME280;17579;42.690;2.586;2022-08-21T13:11:09;97002.28;;;34.26;26.46
30873;BME280;17579;42.690;2.586;2022-08-21T13:13:50;96992.94;;;34.41;26.39
30873;BME280;17579;42.690;2.586;2022-08-21T13:16:42;96982.28;;;34.25;26.56
30873;BME280;17579;42.690;2.586;2022-08-21T13:19:21;96988.59;;;33.98;26.59
30873;BME280;17579;42.690;2.586;2022-08-21T13:22:14;96997.56;;;33.71;27.10
30873;BME280;17579;42.690;2.586;2022-08-21T13:24:53;96979.00;;;33.81;26.90
30873;BME280;17579;42.690;2.586;2022-08-21T13:27:35;96997.25;;;34.33;26.90
30873;BME280;17579;42.690;2.586;2022-08-21T13:30:11;96987.72;;;34.81;26.08
30873;BME280;17579;42.690;2.586;2022-08-21T13:32:42;97009.38;;;35.19;25.77
30873;BME280;17579;42.690;2.586;2022-08-21T13:36:03;96993.72;;;35.42;25.66
30873;BME280;17579;42.690;2.586;2022-08-21T13:38:27;97009.13;;;35.43;25.19
30873;BME280;17579;42.690;2.586;2022-08-21T13:41:26;97012.88;;;35.11;25.59
30873;BME280;17579;42.690;2.586;2022-08-21T13:44:21;96999.72;;;34.71;25.67
30873;BME280;17579;42.690;2.586;2022-08-21T13:47:12;96997.91;;;34.25;26.03
30873;BME280;17579;42.690;2.586;2022-08-21T13:49:51;96998.94;;;33.87;26.71
30873;BME280;17579;42.690;2.586;2022-08-21T13:52:46;97000.47;;;33.60;26.79
30873;BME280;17579;42.690;2.586;2022-08-21T13:55:18;96998.72;;;33.50;27.06
30873;BME280;17579;42.690;2.586;2022-08-21T13:57:58;96992.16;;;33.32;27.37
30873;BME280;17579;42.690;2.586;2022-08-21T14:00:46;96987.94;;;33.21;27.41
30873;BME280;17579;42.690;2.586;2022-08-21T14:03:47;96984.69;;;33.00;27.67
30873;BME280;17579;42.690;2.586;2022-08-21T14:06:47;97007.22;;;32.97;27.86
30873;BME280;17579;42.690;2.586;2022-08-21T14:09:39;96988.03;;;33.16;27.77
30873;BME280;17579;42.690;2.586;2022-08-21T14:12:28;96997.72;;;33.27;27.66
30873;BME280;17579;42.690;2.586;2022-08-21T14:15:05;97001.78;;;33.30;27.65
30873;BME280;17579;42.690;2.586;2022-08-21T14:17:39;96993.34;;;33.07;27.45
30873;BME280;17579;42.690;2.586;2022-08-21T14:20:11;97006.47;;;32.91;27.73
30873;BME280;17579;42.690;2.586;2022-08-21T14:22:51;97004.34;;;32.64;28.16
30873;BME280;17579;42.690;2.586;2022-08-21T14:31:30;97012.34;;;32.41;28.44
30873;BME280;17579;42.690;2.586;2022-08-21T14:34:11;96999.00;;;32.35;28.70
30873;BME280;17579;42.690;2.586;2022-08-21T14:37:02;97000.34;;;32.13;28.90
30873;BME280;17579;42.690;2.586;2022-08-21T14:39:39;96999.53;;;32.12;29.32
30873;BME280;17579;42.690;2.586;2022-08-21T14:42:29;96999.69;;;31.97;29.20
30873;BME280;17579;42.690;2.586;2022-08-21T14:45:14;96991.22;;;31.93;29.55
30873;BME280;17579;42.690;2.586;2022-08-21T14:47:41;97002.91;;;31.99;29.51
30873;BME280;17579;42.690;2.586;2022-08-21T14:50:08;96992.91;;;31.89;29.41
30873;BME280;17579;42.690;2.586;2022-08-21T14:52:34;96990.28;;;31.79;29.99
30873;BME280;17579;42.690;2.586;2022-08-21T14:55:00;96994.19;;;31.73;29.65
30873;BME280;17579;42.690;2.586;2022-08-21T14:57:27;96990.38;;;31.69;29.83
30873;BME280;17579;42.690;2.586;2022-08-21T14:59:54;96987.91;;;31.72;30.20
30873;BME280;17579;42.690;2.586;2022-08-21T15:02:39;96995.09;;;31.63;30.23
30873;BME280;17579;42.690;2.586;2022-08-21T15:05:05;96995.06;;;31.68;30.46
30873;BME280;17579;42.690;2.586;2022-08-21T15:07:34;96969.06;;;31.71;30.17
30873;BME280;17579;42.690;2.586;2022-08-21T15:10:00;96974.56;;;31.66;30.28
30873;BME280;17579;42.690;2.586;2022-08-21T15:12:34;96976.00;;;31.58;29.99
30873;BME280;17579;42.690;2.586;2022-08-21T15:14:59;96971.34;;;31.58;30.68